sensor_id;sensor_type;location;lat;lon;timestamp;P1;durP1;ratioP1;P2;durP2;ratioP2
6145;SDS011;3104;50.348;7.620;2023-01-24T00:00:53;7.87;;;6.87;;
6145;SDS011;3104;50.348;7.620;2023-01-24T00:03:19;7.80;;;6.07;;
6145;SDS011;3104;50.348;7.620;2023-01-24T00:05:45;6.00;;;4.13;;
6145;SDS011;3104;50.348;7.620;2023-01-24T00:08:13;8.30;;;7.47;;
6145;SDS011;3104;50.348;7.620;2023-01-24T00:10:40;9.73;;;6.70;;
6145;SDS011;3104;50.348;7.620;2023-01-24T00:13:06;6.93;;;6.23;;
6145;SDS011;3104;50.348;7.620;2023-01-24T00:15:32;7.03;;;5.83;;
6145;SDS011;3104;50.348;7.620;2023-01-24T00:17:58;12.20;;;7.87;;
6145;SDS011;3104;50.348;7.620;2023-01-24T00:20:24;8.40;;;6.63;;
6145;SDS011;3104;50.348;7.620;2023-01-24T00:22:50;11.80;;;8.17;;
6145;SDS011;3104;50.348;7.620;2023-01-24T00:25:15;10.00;;;7.60;;
6145;SDS011;3104;50.348;7.620;2023-01-24T00:27:41;7.97;;;7.10;;
6145;SDS011;3104;50.348;7.620;2023-01-24T00:30:07;8.60;;;7.10;;
6145;SDS011;3104;50.348;7.620;2023-01-24T00:32:33;6.33;;;5.70;;
6145;SDS011;3104;50.348;7.620;2023-01-24T00:34:59;7.10;;;6.40;;
6145;SDS011;3104;50.348;7.620;2023-01-24T00:37:25;5.50;;;5.00;;
6145;SDS011;3104;50.348;7.620;2023-01-24T00:39:50;7.00;;;5.20;;
6145;SDS011;3104;50.348;7.620;2023-01-24T00:42:16;8.47;;;5.30;;
6145;SDS011;3104;50.348;7.620;2023-01-24T00:44:41;8.37;;;5.73;;
6145;SDS011;3104;50.348;7.620;2023-01-24T00:47:07;5.97;;;5.37;;
6145;SDS011;3104;50.348;7.620;2023-01-24T00:49:33;10.00;;;7.73;;
6145;SDS011;3104;50.348;7.620;2023-01-24T00:51:58;9.50;;;5.87;;
6145;SDS011;3104;50.348;7.620;2023-01-24T00:54:24;8.90;;;6.87;;
6145;SDS011;3104;50.348;7.620;2023-01-24T00:56:49;7.43;;;6.63;;
6145;SDS011;3104;50.348;7.620;2023-01-24T00:59:15;5.57;;;4.97;;
6145;SDS011;3104;50.348;7.620;2023-01-24T01:01:40;6.27;;;5.67;;
6145;SDS011;3104;50.348;7.620;2023-01-24T01:04:06;8.20;;;6.07;;
6145;SDS011;3104;50.348;7.620;2023-01-24T01:06:32;6.27;;;5.63;;
6145;SDS011;3104;50.348;7.620;2023-01-24T01:08:58;8.07;;;6.53;;
6145;SDS011;3104;50.348;7.620;2023-01-24T01:11:23;6.03;;;5.53;;
6145;SDS011;3104;50.348;7.620;2023-01-24T01:13:49;7.43;;;6.80;;
6145;SDS011;3104;50.348;7.620;2023-01-24T01:16:17;10.20;;;6.63;;
6145;SDS011;3104;50.348;7.620;2023-01-24T01:18:44;11.73;;;8.10;;
6145;SDS011;3104;50.348;7.620;2023-01-24T01:21:14;6.63;;;5.77;;
6145;SDS011;3104;50.348;7.620;2023-01-24T01:23:41;7.70;;;6.90;;
6145;SDS011;3104;50.348;7.620;2023-01-24T01:26:08;5.17;;;4.70;;
6145;SDS011;3104;50.348;7.620;2023-01-24T01:28:37;7.40;;;5.63;;
6145;SDS011;3104;50.348;7.620;2023-01-24T01:31:03;6.43;;;5.33;;
6145;SDS011;3104;50.348;7.620;2023-01-24T01:33:29;10.70;;;6.43;;
6145;SDS011;3104;50.348;7.620;2023-01-24T01:35:54;6.37;;;5.47;;
6145;SDS011;3104;50.348;7.620;2023-01-24T01:38:20;11.40;;;8.50;;
6145;SDS011;3104;50.348;7.620;2023-01-24T01:40:46;6.47;;;5.77;;
6145;SDS011;3104;50.348;7.620;2023-01-24T01:43:13;6.00;;;5.10;;
6145;SDS011;3104;50.348;7.620;2023-01-24T01:45:47;10.20;;;6.77;;
6145;SDS011;3104;50.348;7.620;2023-01-24T01:53:51;12.53;;;8.03;;
6145;SDS011;3104;50.348;7.620;2023-01-24T01:56:32;11.00;;;7.37;;
6145;SDS011;3104;50.348;7.620;2023-01-24T01:59:02;7.13;;;5.70;;
6145;SDS011;3104;50.348;7.620;2023-01-24T02:01:31;7.10;;;5.63;;
6145;SDS011;3104;50.348;7.620;2023-01-24T02:04:00;11.03;;;7.13;;
6145;SDS011;3104;50.348;7.620;2023-01-24T02:09:10;13.40;;;7.50;;
6145;SDS011;3104;50.348;7.620;2023-01-24T02:11:38;6.07;;;5.00;;
6145;SDS011;3104;50.348;7.620;2023-01-24T02:14:05;7.97;;;5.93;;
6145;SDS011;3104;50.348;7.620;2023-01-24T02:16:51;11.00;;;8.30;;
6145;SDS011;3104;50.348;7.620;2023-01-24T02:19:23;5.43;;;4.43;;
6145;SDS011;3104;50.348;7.620;2023-01-24T02:22:03;11.83;;;5.07;;
6145;SDS011;3104;50.348;7.620;2023-01-24T02:24:40;4.90;;;4.13;;
6145;SDS011;3104;50.348;7.620;2023-01-24T02:27:13;6.40;;;4.60;;
6145;SDS011;3104;50.348;7.620;2023-01-24T02:29:39;17.67;;;7.93;;
6145;SDS011;3104;50.348;7.620;2023-01-24T02:32:07;10.73;;;6.47;;
6145;SDS011;3104;50.348;7.620;2023-01-24T02:34:32;9.70;;;6.00;;
6145;SDS011;3104;50.348;7.620;2023-01-24T02:36:59;10.37;;;6.33;;
6145;SDS011;3104;50.348;7.620;2023-01-24T02:39:27;6.27;;;4.80;;
6145;SDS011;3104;50.348;7.620;2023-01-24T02:42:08;8.00;;;6.00;;
6145;SDS011;3104;50.348;7.620;2023-01-24T02:44:51;5.43;;;4.93;;
6145;SDS011;3104;50.348;7.620;2023-01-24T02:47:34;5.57;;;4.53;;
6145;SDS011;3104;50.348;7.620;2023-01-24T02:50:06;6.70;;;5.33;;
6145;SDS011;3104;50.348;7.620;2023-01-24T02:52:33;5.90;;;5.00;;
6145;SDS011;3104;50.348;7.620;2023-01-24T02:55:18;5.00;;;4.53;;
6145;SDS011;3104;50.348;7.620;2023-01-24T02:57:43;5.00;;;4.60;;
6145;SDS011;3104;50.348;7.620;2023-01-24T03:00:28;8.20;;;5.30;;
6145;SDS011;3104;50.348;7.620;2023-01-24T03:02:54;7.00;;;6.23;;
6145;SDS011;3104;50.348;7.620;2023-01-24T03:05:20;5.53;;;4.97;;
6145;SDS011;3104;50.348;7.620;2023-01-24T03:07:46;5.87;;;5.23;;
6145;SDS011;3104;50.348;7.620;2023-01-24T03:10:12;5.33;;;4.13;;
6145;SDS011;3104;50.348;7.620;2023-01-24T03:12:42;6.90;;;4.70;;
6145;SDS011;3104;50.348;7.620;2023-01-24T03:15:26;5.50;;;5.00;;
6145;SDS011;3104;50.348;7.620;2023-01-24T03:18:10;7.03;;;5.30;;
6145;SDS011;3104;50.348;7.620;2023-01-24T03:20:54;4.40;;;4.00;;
6145;SDS011;3104;50.348;7.620;2023-01-24T03:23:39;5.50;;;4.83;;
6145;SDS011;3104;50.348;7.620;2023-01-24T03:26:23;4.30;;;4.00;;
6145;SDS011;3104;50.348;7.620;2023-01-24T03:29:09;6.07;;;5.43;;
6145;SDS011;3104;50.348;7.620;2023-01-24T03:31:53;5.93;;;5.33;;
6145;SDS011;3104;50.348;7.620;2023-01-24T03:34:37;6.63;;;5.93;;
6145;SDS011;3104;50.348;7.620;2023-01-24T03:37:18;5.90;;;5.30;;
6145;SDS011;3104;50.348;7.620;2023-01-24T03:40:05;6.20;;;5.60;;
6145;SDS011;3104;50.348;7.620;2023-01-24T03:42:33;5.50;;;5.00;;
6145;SDS011;3104;50.348;7.620;2023-01-24T03:44:59;5.53;;;5.13;;
6145;SDS011;3104;50.348;7.620;2023-01-24T03:47:25;6.20;;;5.33;;
6145;SDS011;3104;50.348;7.620;2023-01-24T03:49:51;5.27;;;4.83;;
6145;SDS011;3104;50.348;7.620;2023-01-24T03:52:35;4.77;;;4.30;;
6145;SDS011;3104;50.348;7.620;2023-01-24T03:55:00;6.30;;;4.97;;
6145;SDS011;3104;50.348;7.620;2023-01-24T03:57:29;5.17;;;4.67;;
6145;SDS011;3104;50.348;7.620;2023-01-24T03:59:55;5.50;;;5.00;;
6145;SDS011;3104;50.348;7.620;2023-01-24T04:02:21;4.47;;;4.07;;
6145;SDS011;3104;50.348;7.620;2023-01-24T04:04:48;4.50;;;4.10;;
6145;SDS011;3104;50.348;7.620;2023-01-24T04:07:32;5.60;;;5.00;;
6145;SDS011;3104;50.348;7.620;2023-01-24T04:09:57;4.83;;;4.43;;
6145;SDS011;3104;50.348;7.620;2023-01-24T04:12:24;5.27;;;4.77;;
6145;SDS011;3104;50.348;7.620;2023-01-24T04:14:50;6.07;;;5.53;;
6145;SDS011;3104;50.348;7.620;2023-01-24T04:17:16;6.27;;;4.87;;
6145;SDS011;3104;50.348;7.620;2023-01-24T04:19:41;4.93;;;4.40;;
6145;SDS011;3104;50.348;7.620;2023-01-24T04:22:07;7.60;;;4.83;;
6145;SDS011;3104;50.348;7.620;2023-01-24T04:24:33;5.20;;;4.47;;
6145;SDS011;3104;50.348;7.620;2023-01-24T04:26:59;6.83;;;4.90;;
6145;SDS011;3104;50.348;7.620;2023-01-24T04:29:24;6.00;;;4.70;;
6145;SDS011;3104;50.348;7.620;2023-01-24T04:31:50;6.63;;;5.93;;
6145;SDS011;3104;50.348;7.620;2023-01-24T04:34:15;5.43;;;4.57;;
6145;SDS011;3104;50.348;7.620;2023-01-24T04:36:41;5.50;;;4.80;;
6145;SDS011;3104;50.348;7.620;2023-01-24T04:39:06;6.30;;;5.73;;
6145;SDS011;3104;50.348;7.620;2023-01-24T04:41:32;4.83;;;4.43;;
6145;SDS011;3104;50.348;7.620;2023-01-24T04:43:57;6.07;;;5.10;;
6145;SDS011;3104;50.348;7.620;2023-01-24T04:46:23;4.93;;;4.53;;
6145;SDS011;3104;50.348;7.620;2023-01-24T04:48:48;7.70;;;6.20;;
6145;SDS011;3104;50.348;7.620;2023-01-24T04:51:14;6.10;;;5.07;;
6145;SDS011;3104;50.348;7.620;2023-01-24T04:53:40;5.73;;;5.23;;
6145;SDS011;3104;50.348;7.620;2023-01-24T04:56:06;6.37;;;5.77;;
6145;SDS011;3104;50.348;7.620;2023-01-24T04:58:33;5.67;;;5.17;;
6145;SDS011;3104;50.348;7.620;2023-01-24T05:00:59;7.00;;;5.80;;
6145;SDS011;3104;50.348;7.620;2023-01-24T05:03:25;6.73;;;5.90;;
6145;SDS011;3104;50.348;7.620;2023-01-24T05:05:51;6.03;;;5.40;;
6145;SDS011;3104;50.348;7.620;2023-01-24T05:08:17;6.93;;;5.37;;
6145;SDS011;3104;50.348;7.620;2023-01-24T05:10:43;6.90;;;6.20;;
6145;SDS011;3104;50.348;7.620;2023-01-24T05:13:09;6.07;;;5.47;;
6145;SDS011;3104;50.348;7.620;2023-01-24T05:15:34;5.80;;;5.20;;
6145;SDS011;3104;50.348;7.620;2023-01-24T05:18:00;6.40;;;5.30;;
6145;SDS011;3104;50.348;7.620;2023-01-24T05:20:26;7.77;;;5.53;;
6145;SDS011;3104;50.348;7.620;2023-01-24T05:22:54;7.80;;;6.20;;
6145;SDS011;3104;50.348;7.620;2023-01-24T05:25:21;6.63;;;5.30;;
6145;SDS011;3104;50.348;7.620;2023-01-24T05:27:47;7.73;;;6.93;;
6145;SDS011;3104;50.348;7.620;2023-01-24T05:30:12;6.80;;;6.10;;
6145;SDS011;3104;50.348;7.620;2023-01-24T05:32:38;6.20;;;4.87;;
6145;SDS011;3104;50.348;7.620;2023-01-24T05:35:04;7.30;;;6.47;;
6145;SDS011;3104;50.348;7.620;2023-01-24T05:37:30;6.93;;;6.27;;
6145;SDS011;3104;50.348;7.620;2023-01-24T05:39:56;6.10;;;5.50;;
6145;SDS011;3104;50.348;7.620;2023-01-24T05:42:21;6.13;;;5.53;;
6145;SDS011;3104;50.348;7.620;2023-01-24T05:44:47;7.93;;;6.80;;
6145;SDS011;3104;50.348;7.620;2023-01-24T05:47:12;7.80;;;6.00;;
6145;SDS011;3104;50.348;7.620;2023-01-24T05:49:38;6.63;;;5.93;;
6145;SDS011;3104;50.348;7.620;2023-01-24T05:52:04;10.37;;;7.90;;
6145;SDS011;3104;50.348;7.620;2023-01-24T05:54:29;8.33;;;6.60;;
6145;SDS011;3104;50.348;7.620;2023-01-24T05:56:55;7.87;;;7.07;;
6145;SDS011;3104;50.348;7.620;2023-01-24T05:59:24;8.70;;;6.80;;
6145;SDS011;3104;50.348;7.620;2023-01-24T06:01:49;7.83;;;6.97;;
6145;SDS011;3104;50.348;7.620;2023-01-24T06:04:15;7.73;;;6.73;;
6145;SDS011;3104;50.348;7.620;2023-01-24T06:06:40;9.17;;;7.87;;
6145;SDS011;3104;50.348;7.620;2023-01-24T06:09:06;7.67;;;6.87;;
6145;SDS011;3104;50.348;7.620;2023-01-24T06:11:33;8.50;;;7.17;;
6145;SDS011;3104;50.348;7.620;2023-01-24T06:13:59;9.80;;;7.70;;
6145;SDS011;3104;50.348;7.620;2023-01-24T06:16:24;9.50;;;7.10;;
6145;SDS011;3104;50.348;7.620;2023-01-24T06:18:51;9.13;;;6.90;;
6145;SDS011;3104;50.348;7.620;2023-01-24T06:24:23;10.73;;;8.17;;
6145;SDS011;3104;50.348;7.620;2023-01-24T06:26:51;8.67;;;6.93;;
6145;SDS011;3104;50.348;7.620;2023-01-24T06:29:18;8.77;;;6.37;;
6145;SDS011;3104;50.348;7.620;2023-01-24T06:37:06;8.30;;;6.90;;
6145;SDS011;3104;50.348;7.620;2023-01-24T06:39:40;8.70;;;7.90;;
6145;SDS011;3104;50.348;7.620;2023-01-24T06:42:15;11.90;;;8.70;;
6145;SDS011;3104;50.348;7.620;2023-01-24T06:44:41;7.43;;;6.63;;
6145;SDS011;3104;50.348;7.620;2023-01-24T06:47:08;8.43;;;5.67;;
6145;SDS011;3104;50.348;7.620;2023-01-24T06:49:35;10.83;;;8.20;;
6145;SDS011;3104;50.348;7.620;2023-01-24T06:52:01;25.10;;;19.30;;
6145;SDS011;3104;50.348;7.620;2023-01-24T06:54:27;8.63;;;7.73;;
6145;SDS011;3104;50.348;7.620;2023-01-24T06:56:52;10.50;;;8.67;;
6145;SDS011;3104;50.348;7.620;2023-01-24T06:59:18;9.77;;;7.33;;
6145;SDS011;3104;50.348;7.620;2023-01-24T07:01:44;11.37;;;9.80;;
6145;SDS011;3104;50.348;7.620;2023-01-24T07:04:10;9.90;;;7.67;;
6145;SDS011;3104;50.348;7.620;2023-01-24T07:06:35;10.63;;;7.60;;
6145;SDS011;3104;50.348;7.620;2023-01-24T07:09:01;9.57;;;7.53;;
6145;SDS011;3104;50.348;7.620;2023-01-24T07:11:27;8.67;;;7.20;;
6145;SDS011;3104;50.348;7.620;2023-01-24T07:13:52;8.20;;;7.30;;
6145;SDS011;3104;50.348;7.620;2023-01-24T07:16:18;10.30;;;8.60;;
6145;SDS011;3104;50.348;7.620;2023-01-24T07:18:43;10.10;;;8.83;;
6145;SDS011;3104;50.348;7.620;2023-01-24T07:21:09;9.13;;;8.23;;
6145;SDS011;3104;50.348;7.620;2023-01-24T07:23:35;10.27;;;8.90;;
6145;SDS011;3104;50.348;7.620;2023-01-24T07:26:02;8.43;;;7.30;;
6145;SDS011;3104;50.348;7.620;2023-01-24T07:28:28;9.57;;;7.43;;
6145;SDS011;3104;50.348;7.620;2023-01-24T07:30:54;10.80;;;8.23;;
6145;SDS011;3104;50.348;7.620;2023-01-24T07:33:20;9.67;;;7.77;;
6145;SDS011;3104;50.348;7.620;2023-01-24T07:35:46;9.70;;;8.70;;
6145;SDS011;3104;50.348;7.620;2023-01-24T07:38:12;8.60;;;7.43;;
6145;SDS011;3104;50.348;7.620;2023-01-24T07:40:37;12.47;;;8.27;;
6145;SDS011;3104;50.348;7.620;2023-01-24T07:43:03;8.80;;;7.07;;
6145;SDS011;3104;50.348;7.620;2023-01-24T07:45:30;9.97;;;7.10;;
6145;SDS011;3104;50.348;7.620;2023-01-24T07:47:57;10.07;;;7.73;;
6145;SDS011;3104;50.348;7.620;2023-01-24T07:50:23;10.47;;;8.33;;
6145;SDS011;3104;50.348;7.620;2023-01-24T07:52:53;13.27;;;7.20;;
6145;SDS011;3104;50.348;7.620;2023-01-24T07:55:19;11.50;;;8.70;;
6145;SDS011;3104;50.348;7.620;2023-01-24T07:57:45;10.97;;;9.17;;
6145;SDS011;3104;50.348;7.620;2023-01-24T08:00:11;9.70;;;8.17;;
6145;SDS011;3104;50.348;7.620;2023-01-24T08:02:38;11.30;;;8.80;;
6145;SDS011;3104;50.348;7.620;2023-01-24T08:05:04;7.83;;;6.20;;
6145;SDS011;3104;50.348;7.620;2023-01-24T08:07:31;8.53;;;7.70;;
6145;SDS011;3104;50.348;7.620;2023-01-24T08:09:57;10.60;;;8.83;;
6145;SDS011;3104;50.348;7.620;2023-01-24T08:12:22;10.73;;;7.93;;
6145;SDS011;3104;50.348;7.620;2023-01-24T08:14:48;12.00;;;8.80;;
6145;SDS011;3104;50.348;7.620;2023-01-24T08:17:14;10.17;;;8.03;;
6145;SDS011;3104;50.348;7.620;2023-01-24T08:19:40;12.70;;;9.27;;
6145;SDS011;3104;50.348;7.620;2023-01-24T08:22:05;15.70;;;10.30;;
6145;SDS011;3104;50.348;7.620;2023-01-24T08:24:31;11.37;;;8.90;;
6145;SDS011;3104;50.348;7.620;2023-01-24T08:26:58;12.80;;;9.03;;
6145;SDS011;3104;50.348;7.620;2023-01-24T08:29:24;20.73;;;10.03;;
6145;SDS011;3104;50.348;7.620;2023-01-24T08:31:50;13.33;;;10.47;;
6145;SDS011;3104;50.348;7.620;2023-01-24T08:34:16;11.37;;;10.13;;
6145;SDS011;3104;50.348;7.620;2023-01-24T08:36:41;11.93;;;9.50;;
6145;SDS011;3104;50.348;7.620;2023-01-24T08:39:07;12.43;;;9.73;;
6145;SDS011;3104;50.348;7.620;2023-01-24T08:41:33;14.20;;;10.17;;
6145;SDS011;3104;50.348;7.620;2023-01-24T08:43:59;16.30;;;10.70;;
6145;SDS011;3104;50.348;7.620;2023-01-24T08:46:27;15.03;;;10.13;;
6145;SDS011;3104;50.348;7.620;2023-01-24T08:48:53;22.80;;;17.27;;
6145;SDS011;3104;50.348;7.620;2023-01-24T08:51:19;14.60;;;12.03;;
6145;SDS011;3104;50.348;7.620;2023-01-24T08:53:44;12.07;;;9.97;;
6145;SDS011;3104;50.348;7.620;2023-01-24T08:56:10;18.10;;;12.00;;
6145;SDS011;3104;50.348;7.620;2023-01-24T08:58:36;14.30;;;10.87;;
6145;SDS011;3104;50.348;7.620;2023-01-24T09:01:08;12.47;;;8.67;;
6145;SDS011;3104;50.348;7.620;2023-01-24T09:03:37;13.70;;;10.00;;
6145;SDS011;3104;50.348;7.620;2023-01-24T09:06:03;11.47;;;8.60;;
6145;SDS011;3104;50.348;7.620;2023-01-24T09:08:29;13.73;;;11.70;;
6145;SDS011;3104;50.348;7.620;2023-01-24T09:10:59;16.40;;;11.37;;
6145;SDS011;3104;50.348;7.620;2023-01-24T09:13:26;13.03;;;9.70;;
6145;SDS011;3104;50.348;7.620;2023-01-24T09:15:51;15.60;;;10.27;;
6145;SDS011;3104;50.348;7.620;2023-01-24T09:18:17;15.73;;;10.00;;
6145;SDS011;3104;50.348;7.620;2023-01-24T09:20:43;19.90;;;13.17;;
6145;SDS011;3104;50.348;7.620;2023-01-24T09:23:09;17.83;;;11.10;;
6145;SDS011;3104;50.348;7.620;2023-01-24T09:25:40;30.97;;;18.63;;
6145;SDS011;3104;50.348;7.620;2023-01-24T09:28:06;14.73;;;10.80;;
6145;SDS011;3104;50.348;7.620;2023-01-24T09:30:35;12.70;;;9.83;;
6145;SDS011;3104;50.348;7.620;2023-01-24T09:33:04;16.23;;;11.47;;
6145;SDS011;3104;50.348;7.620;2023-01-24T09:35:29;13.17;;;10.13;;
6145;SDS011;3104;50.348;7.620;2023-01-24T09:37:55;17.40;;;11.90;;
6145;SDS011;3104;50.348;7.620;2023-01-24T09:40:35;15.30;;;11.60;;
6145;SDS011;3104;50.348;7.620;2023-01-24T09:45:56;14.37;;;10.40;;
6145;SDS011;3104;50.348;7.620;2023-01-24T09:48:57;16.43;;;12.37;;
6145;SDS011;3104;50.348;7.620;2023-01-24T09:51:29;11.33;;;8.40;;
6145;SDS011;3104;50.348;7.620;2023-01-24T09:53:59;14.60;;;9.40;;
6145;SDS011;3104;50.348;7.620;2023-01-24T09:56:37;18.37;;;12.10;;
6145;SDS011;3104;50.348;7.620;2023-01-24T09:59:20;15.37;;;10.73;;
6145;SDS011;3104;50.348;7.620;2023-01-24T10:01:51;17.50;;;12.70;;
6145;SDS011;3104;50.348;7.620;2023-01-24T10:06:55;16.80;;;10.17;;
6145;SDS011;3104;50.348;7.620;2023-01-24T10:09:32;17.03;;;12.30;;
6145;SDS011;3104;50.348;7.620;2023-01-24T10:15:19;16.03;;;11.60;;
6145;SDS011;3104;50.348;7.620;2023-01-24T10:21:14;10.13;;;9.03;;
6145;SDS011;3104;50.348;7.620;2023-01-24T10:23:51;16.43;;;11.60;;
6145;SDS011;3104;50.348;7.620;2023-01-24T10:29:11;14.13;;;9.93;;
6145;SDS011;3104;50.348;7.620;2023-01-24T10:31:41;13.57;;;10.90;;
6145;SDS011;3104;50.348;7.620;2023-01-24T10:34:25;13.97;;;9.87;;
6145;SDS011;3104;50.348;7.620;2023-01-24T10:36:57;18.30;;;12.60;;
6145;SDS011;3104;50.348;7.620;2023-01-24T10:39:28;15.90;;;10.90;;
6145;SDS011;3104;50.348;7.620;2023-01-24T10:41:54;13.50;;;10.73;;
6145;SDS011;3104;50.348;7.620;2023-01-24T10:49:39;17.40;;;11.43;;
6145;SDS011;3104;50.348;7.620;2023-01-24T10:52:16;14.53;;;10.10;;
6145;SDS011;3104;50.348;7.620;2023-01-24T10:54:44;18.57;;;13.57;;
6145;SDS011;3104;50.348;7.620;2023-01-24T10:57:35;16.80;;;12.10;;
6145;SDS011;3104;50.348;7.620;2023-01-24T11:02:46;11.27;;;8.50;;
6145;SDS011;3104;50.348;7.620;2023-01-24T11:05:15;13.13;;;10.17;;
6145;SDS011;3104;50.348;7.620;2023-01-24T11:07:46;15.30;;;10.83;;
6145;SDS011;3104;50.348;7.620;2023-01-24T11:15:18;14.60;;;10.00;;
6145;SDS011;3104;50.348;7.620;2023-01-24T11:18:06;14.40;;;10.93;;
6145;SDS011;3104;50.348;7.620;2023-01-24T11:20:41;11.87;;;8.17;;
6145;SDS011;3104;50.348;7.620;2023-01-24T11:23:15;11.77;;;9.57;;
6145;SDS011;3104;50.348;7.620;2023-01-24T11:25:57;11.20;;;8.70;;
6145;SDS011;3104;50.348;7.620;2023-01-24T11:28:27;12.87;;;9.23;;
6145;SDS011;3104;50.348;7.620;2023-01-24T11:30:55;12.43;;;9.80;;
6145;SDS011;3104;50.348;7.620;2023-01-24T11:45:14;14.10;;;9.47;;
6145;SDS011;3104;50.348;7.620;2023-01-24T11:48:12;19.70;;;12.00;;
6145;SDS011;3104;50.348;7.620;2023-01-24T11:50:47;16.13;;;12.40;;
6145;SDS011;3104;50.348;7.620;2023-01-24T11:56:11;14.00;;;10.60;;
6145;SDS011;3104;50.348;7.620;2023-01-24T12:01:28;15.67;;;12.50;;
6145;SDS011;3104;50.348;7.620;2023-01-24T12:11:42;18.93;;;13.30;;
6145;SDS011;3104;50.348;7.620;2023-01-24T12:20:07;12.93;;;10.13;;
6145;SDS011;3104;50.348;7.620;2023-01-24T12:22:35;16.10;;;11.43;;
6145;SDS011;3104;50.348;7.620;2023-01-24T12:28:06;14.20;;;11.00;;
6145;SDS011;3104;50.348;7.620;2023-01-24T12:30:44;15.77;;;11.20;;
6145;SDS011;3104;50.348;7.620;2023-01-24T12:35:59;18.73;;;13.47;;
6145;SDS011;3104;50.348;7.620;2023-01-24T12:46:41;15.80;;;12.70;;
6145;SDS011;3104;50.348;7.620;2023-01-24T12:49:23;14.23;;;12.73;;
6145;SDS011;3104;50.348;7.620;2023-01-24T12:52:09;12.83;;;9.63;;
6145;SDS011;3104;50.348;7.620;2023-01-24T12:55:22;16.13;;;10.77;;
6145;SDS011;3104;50.348;7.620;2023-01-24T12:57:59;16.63;;;11.53;;
6145;SDS011;3104;50.348;7.620;2023-01-24T13:06:27;16.10;;;10.33;;
6145;SDS011;3104;50.348;7.620;2023-01-24T13:12:24;13.73;;;9.23;;
6145;SDS011;3104;50.348;7.620;2023-01-24T13:14:53;11.00;;;9.27;;
6145;SDS011;3104;50.348;7.620;2023-01-24T13:34:28;24.17;;;19.23;;
6145;SDS011;3104;50.348;7.620;2023-01-24T13:36:57;13.47;;;9.17;;
6145;SDS011;3104;50.348;7.620;2023-01-24T13:39:32;24.10;;;15.73;;
6145;SDS011;3104;50.348;7.620;2023-01-24T13:42:05;23.73;;;17.47;;
6145;SDS011;3104;50.348;7.620;2023-01-24T13:44:37;17.23;;;11.13;;
6145;SDS011;3104;50.348;7.620;2023-01-24T13:47:24;16.00;;;10.13;;
6145;SDS011;3104;50.348;7.620;2023-01-24T13:54:56;17.10;;;11.47;;
6145;SDS011;3104;50.348;7.620;2023-01-24T14:05:02;16.10;;;11.87;;
6145;SDS011;3104;50.348;7.620;2023-01-24T14:07:28;13.50;;;10.63;;
6145;SDS011;3104;50.348;7.620;2023-01-24T14:10:03;15.27;;;11.83;;
6145;SDS011;3104;50.348;7.620;2023-01-24T14:15:53;11.87;;;10.07;;
6145;SDS011;3104;50.348;7.620;2023-01-24T14:21:12;24.47;;;14.07;;
6145;SDS011;3104;50.348;7.620;2023-01-24T14:23:44;24.03;;;13.87;;
6145;SDS011;3104;50.348;7.620;2023-01-24T14:26:13;15.13;;;11.67;;
6145;SDS011;3104;50.348;7.620;2023-01-24T14:28:45;13.43;;;9.87;;
6145;SDS011;3104;50.348;7.620;2023-01-24T14:31:23;16.27;;;11.47;;
6145;SDS011;3104;50.348;7.620;2023-01-24T14:33:55;13.30;;;9.80;;
6145;SDS011;3104;50.348;7.620;2023-01-24T14:36:34;13.60;;;10.60;;
6145;SDS011;3104;50.348;7.620;2023-01-24T14:39:10;11.57;;;9.80;;
6145;SDS011;3104;50.348;7.620;2023-01-24T14:41:36;12.50;;;9.63;;
6145;SDS011;3104;50.348;7.620;2023-01-24T14:44:04;15.43;;;12.47;;
6145;SDS011;3104;50.348;7.620;2023-01-24T14:46:39;10.83;;;9.33;;
6145;SDS011;3104;50.348;7.620;2023-01-24T14:49:48;11.93;;;9.80;;
6145;SDS011;3104;50.348;7.620;2023-01-24T14:54:50;13.07;;;10.17;;
6145;SDS011;3104;50.348;7.620;2023-01-24T14:57:29;12.07;;;9.40;;
6145;SDS011;3104;50.348;7.620;2023-01-24T15:00:04;12.77;;;9.97;;
6145;SDS011;3104;50.348;7.620;2023-01-24T15:02:37;16.90;;;12.73;;
6145;SDS011;3104;50.348;7.620;2023-01-24T15:07:51;13.40;;;11.07;;
6145;SDS011;3104;50.348;7.620;2023-01-24T15:10:22;12.00;;;9.00;;
6145;SDS011;3104;50.348;7.620;2023-01-24T15:12:51;13.27;;;10.33;;
6145;SDS011;3104;50.348;7.620;2023-01-24T15:15:18;13.43;;;11.00;;
6145;SDS011;3104;50.348;7.620;2023-01-24T15:17:45;18.63;;;12.90;;
6145;SDS011;3104;50.348;7.620;2023-01-24T15:20:15;11.30;;;8.57;;
6145;SDS011;3104;50.348;7.620;2023-01-24T15:22:43;19.83;;;12.20;;
6145;SDS011;3104;50.348;7.620;2023-01-24T15:25:27;15.80;;;10.33;;
6145;SDS011;3104;50.348;7.620;2023-01-24T15:27:52;15.77;;;11.43;;
6145;SDS011;3104;50.348;7.620;2023-01-24T15:30:22;18.87;;;12.77;;
6145;SDS011;3104;50.348;7.620;2023-01-24T15:35:19;15.93;;;12.43;;
6145;SDS011;3104;50.348;7.620;2023-01-24T15:38:00;14.83;;;11.40;;
6145;SDS011;3104;50.348;7.620;2023-01-24T15:40:52;20.33;;;14.17;;
6145;SDS011;3104;50.348;7.620;2023-01-24T15:49:27;10.90;;;8.63;;
6145;SDS011;3104;50.348;7.620;2023-01-24T15:54:35;10.97;;;9.27;;
6145;SDS011;3104;50.348;7.620;2023-01-24T15:57:06;10.93;;;9.67;;
6145;SDS011;3104;50.348;7.620;2023-01-24T15:59:43;10.27;;;8.70;;
6145;SDS011;3104;50.348;7.620;2023-01-24T16:02:14;9.07;;;7.37;;
6145;SDS011;3104;50.348;7.620;2023-01-24T16:04:40;10.90;;;8.77;;
6145;SDS011;3104;50.348;7.620;2023-01-24T16:07:06;14.07;;;10.33;;
6145;SDS011;3104;50.348;7.620;2023-01-24T16:09:31;10.07;;;8.40;;
6145;SDS011;3104;50.348;7.620;2023-01-24T16:11:57;11.57;;;8.93;;
6145;SDS011;3104;50.348;7.620;2023-01-24T16:14:25;17.30;;;10.57;;
6145;SDS011;3104;50.348;7.620;2023-01-24T16:16:52;12.97;;;10.60;;
6145;SDS011;3104;50.348;7.620;2023-01-24T16:19:19;15.20;;;11.20;;
6145;SDS011;3104;50.348;7.620;2023-01-24T16:21:46;15.53;;;11.97;;
6145;SDS011;3104;50.348;7.620;2023-01-24T16:24:12;19.53;;;14.33;;
6145;SDS011;3104;50.348;7.620;2023-01-24T16:26:40;16.90;;;12.80;;
6145;SDS011;3104;50.348;7.620;2023-01-24T16:29:20;14.20;;;11.70;;
6145;SDS011;3104;50.348;7.620;2023-01-24T16:31:48;18.53;;;11.80;;
6145;SDS011;3104;50.348;7.620;2023-01-24T16:34:14;14.77;;;12.70;;
6145;SDS011;3104;50.348;7.620;2023-01-24T16:36:40;14.80;;;11.00;;
6145;SDS011;3104;50.348;7.620;2023-01-24T16:39:06;14.87;;;11.90;;
6145;SDS011;3104;50.348;7.620;2023-01-24T16:41:32;13.70;;;10.53;;
6145;SDS011;3104;50.348;7.620;2023-01-24T16:43:58;15.93;;;12.40;;
6145;SDS011;3104;50.348;7.620;2023-01-24T16:46:24;14.57;;;11.40;;
6145;SDS011;3104;50.348;7.620;2023-01-24T16:48:50;15.83;;;10.27;;
6145;SDS011;3104;50.348;7.620;2023-01-24T16:51:16;15.43;;;12.00;;
6145;SDS011;3104;50.348;7.620;2023-01-24T16:53:43;9.80;;;8.60;;
6145;SDS011;3104;50.348;7.620;2023-01-24T16:56:10;14.93;;;10.53;;
6145;SDS011;3104;50.348;7.620;2023-01-24T16:58:36;15.50;;;12.33;;
6145;SDS011;3104;50.348;7.620;2023-01-24T17:01:08;14.33;;;11.30;;
6145;SDS011;3104;50.348;7.620;2023-01-24T17:03:34;13.87;;;10.30;;
6145;SDS011;3104;50.348;7.620;2023-01-24T17:06:00;12.13;;;8.87;;
6145;SDS011;3104;50.348;7.620;2023-01-24T17:08:30;12.20;;;9.57;;
6145;SDS011;3104;50.348;7.620;2023-01-24T17:11:01;12.37;;;10.03;;
6145;SDS011;3104;50.348;7.620;2023-01-24T17:13:30;13.60;;;9.20;;
6145;SDS011;3104;50.348;7.620;2023-01-24T17:15:56;14.70;;;10.40;;
6145;SDS011;3104;50.348;7.620;2023-01-24T17:18:22;10.67;;;9.27;;
6145;SDS011;3104;50.348;7.620;2023-01-24T17:20:47;12.27;;;9.47;;
6145;SDS011;3104;50.348;7.620;2023-01-24T17:23:13;10.90;;;9.17;;
6145;SDS011;3104;50.348;7.620;2023-01-24T17:25:38;10.37;;;9.27;;
6145;SDS011;3104;50.348;7.620;2023-01-24T17:28:04;11.20;;;9.40;;
6145;SDS011;3104;50.348;7.620;2023-01-24T17:30:29;11.43;;;9.50;;
6145;SDS011;3104;50.348;7.620;2023-01-24T17:32:55;12.60;;;9.30;;
6145;SDS011;3104;50.348;7.620;2023-01-24T17:35:21;11.70;;;10.13;;
6145;SDS011;3104;50.348;7.620;2023-01-24T17:37:46;13.77;;;10.53;;
6145;SDS011;3104;50.348;7.620;2023-01-24T17:40:12;13.70;;;9.97;;
6145;SDS011;3104;50.348;7.620;2023-01-24T17:42:37;12.20;;;9.70;;
6145;SDS011;3104;50.348;7.620;2023-01-24T17:45:03;11.77;;;10.10;;
6145;SDS011;3104;50.348;7.620;2023-01-24T17:47:29;11.50;;;9.73;;